Time;durP1;ratioP1;P1;durP2;ratioP2;P2;SDS_P1;SDS_P2;PMS_P1;PMS_P2;Temp;Humidity;BMP_temperature;BMP_pressure;BME280_temperature;BME280_humidity;BME280_pressure;Samples;Min_cycle;Max_cycle;Signal;HPM_P1;HPM_P2
2022/08/26 00:01:19;;;;;;;6.03;1.20;;;15.30;99.90;;;;;;4957973;28;20046;-73
2022/08/26 00:03:47;;;;;;;4.47;1.10;;;15.10;99.90;;;;;;4956470;29;20027;-72
2022/08/26 00:06:15;;;;;;;4.53;0.80;;;15.10;99.90;;;;;;4957865;28;20023;-73
2022/08/26 00:08:42;;;;;;;7.47;1.15;;;15.30;99.90;;;;;;4957339;28;20031;-73
2022/08/26 00:11:11;;;;;;;2.90;0.63;;;15.50;99.90;;;;;;4955326;28;20099;-73
2022/08/26 00:13:39;;;;;;;2.88;0.75;;;15.50;99.90;;;;;;4957067;28;20024;-73
2022/08/26 00:16:08;;;;;;;3.22;0.85;;;15.70;99.90;;;;;;4956448;29;20032;-73
2022/08/26 00:18:36;;;;;;;2.38;0.88;;;15.60;99.90;;;;;;4956066;29;20086;-73
2022/08/26 00:21:04;;;;;;;4.75;1.33;;;15.60;99.90;;;;;;4955971;29;20114;-72
2022/08/26 00:23:32;;;;;;;6.32;0.98;;;15.40;99.90;;;;;;4957160;28;20053;-72
2022/08/26 00:26:00;;;;;;;4.25;1.30;;;15.30;99.90;;;;;;4957275;28;20078;-75
2022/08/26 00:28:28;;;;;;;6.97;1.55;;;15.30;99.90;;;;;;4955938;29;20027;-73
2022/08/26 00:30:55;;;;;;;3.63;0.75;;;15.60;99.90;;;;;;4957419;28;20024;-73
2022/08/26 00:33:23;;;;;;;4.70;0.90;;;16.00;99.90;;;;;;4957036;28;20060;-73
2022/08/26 00:35:50;;;;;;;8.73;1.23;;;16.60;99.90;;;;;;4956008;29;20400;-73
2022/08/26 00:38:20;;;;;;;5.20;1.30;;;16.60;99.90;;;;;;4955809;29;20031;-73
2022/08/26 00:40:54;;;;;;;6.35;1.38;;;16.70;99.90;;;;;;4940038;29;20062;-73
2022/08/26 00:43:23;;;;;;;4.78;0.90;;;16.60;99.90;;;;;;4955509;29;20054;-74
2022/08/26 00:46:00;;;;;;;6.20;1.15;;;16.60;99.90;;;;;;4956891;28;20151;-73
2022/08/26 00:48:30;;;;;;;5.93;1.20;;;16.80;99.90;;;;;;4956986;28;20392;-73
2022/08/26 00:51:08;;;;;;;9.38;1.75;;;16.60;99.90;;;;;;4955682;29;20493;-74
2022/08/26 00:53:41;;;;;;;5.97;1.25;;;16.90;99.90;;;;;;4956771;28;20035;-74
2022/08/26 00:56:18;;;;;;;4.22;0.88;;;17.10;99.90;;;;;;4957025;28;20027;-73
2022/08/26 00:58:46;;;;;;;4.32;0.80;;;17.00;99.90;;;;;;4956678;28;20384;-73
2022/08/26 01:01:14;;;;;;;4.15;0.80;;;16.90;99.90;;;;;;4955464;29;20110;-73
2022/08/26 01:03:44;;;;;;;6.90;1.38;;;17.10;99.90;;;;;;4956970;28;20023;-73
2022/08/26 01:06:13;;;;;;;2.80;0.70;;;17.00;99.90;;;;;;4956922;28;20058;-73
2022/08/26 01:08:41;;;;;;;6.65;1.40;;;16.90;99.90;;;;;;4956927;28;20027;-73
2022/08/26 01:11:09;;;;;;;2.70;0.50;;;16.90;99.90;;;;;;4955440;29;20027;-71
2022/08/26 01:13:38;;;;;;;2.97;0.70;;;16.80;99.90;;;;;;4956805;28;20027;-72
2022/08/26 01:16:09;;;;;;;4.78;0.90;;;16.60;99.90;;;;;;4955287;29;20035;-74
2022/08/26 01:18:38;;;;;;;4.00;1.10;;;16.70;99.90;;;;;;4956734;28;20034;-73
2022/08/26 01:21:16;;;;;;;3.80;1.00;;;16.30;99.90;;;;;;4956239;28;20066;-74
2022/08/26 01:23:48;;;;;;;4.50;0.70;;;16.30;99.90;;;;;;4956206;28;20051;-72
2022/08/26 01:26:26;;;;;;;4.57;0.80;;;16.60;99.90;;;;;;4955174;29;20500;-73
2022/08/26 01:28:57;;;;;;;4.60;0.80;;;16.90;99.90;;;;;;4956589;28;20015;-73
2022/08/26 01:31:36;;;;;;;4.68;0.85;;;17.00;99.90;;;;;;4956673;28;20019;-71
2022/08/26 01:34:06;;;;;;;4.03;0.98;;;17.00;99.90;;;;;;4956583;28;20047;-72
2022/08/26 01:36:34;;;;;;;3.42;1.02;;;16.90;99.90;;;;;;4954634;29;20062;-73
2022/08/26 01:39:02;;;;;;;2.60;0.60;;;17.00;99.90;;;;;;4954329;28;20050;-73
2022/08/26 01:41:29;;;;;;;4.50;0.82;;;17.30;99.90;;;;;;4954450;29;20051;-72
2022/08/26 01:43:58;;;;;;;6.43;1.25;;;17.10;99.90;;;;;;4954631;29;20495;-73
2022/08/26 01:46:28;;;;;;;4.07;0.50;;;17.20;99.90;;;;;;4954818;29;20027;-73
2022/08/26 01:48:59;;;;;;;3.65;0.93;;;17.30;99.90;;;;;;4954867;29;20027;-72
2022/08/26 01:51:27;;;;;;;3.05;0.70;;;17.20;99.90;;;;;;4956576;28;20042;-73
2022/08/26 01:53:55;;;;;;;3.28;0.60;;;17.10;99.90;;;;;;4956025;28;20124;-73
2022/08/26 01:56:24;;;;;;;3.80;0.57;;;17.30;99.90;;;;;;4954547;29;20436;-74
2022/08/26 01:58:54;;;;;;;4.72;0.93;;;17.10;99.90;;;;;;4955682;28;20110;-74
2022/08/26 02:01:23;;;;;;;5.82;0.80;;;16.80;99.90;;;;;;4954965;29;20023;-73
2022/08/26 02:03:58;;;;;;;3.80;0.77;;;16.70;99.90;;;;;;4956245;28;20059;-73
2022/08/26 02:06:25;;;;;;;4.25;0.70;;;16.70;99.90;;;;;;4955860;28;20495;-73
2022/08/26 02:08:59;;;;;;;5.25;0.70;;;17.00;99.90;;;;;;4955723;28;20098;-74
2022/08/26 02:11:26;;;;;;;3.15;0.98;;;17.00;99.90;;;;;;4955791;28;20019;-74
2022/08/26 02:14:08;;;;;;;4.90;1.20;;;16.90;99.90;;;;;;4956159;28;20075;-73
2022/08/26 02:16:40;;;;;;;6.40;1.00;;;17.00;99.90;;;;;;4956058;28;20049;-74
2022/08/26 02:19:16;;;;;;;6.15;0.70;;;17.20;99.90;;;;;;4955934;28;20031;-75
2022/08/26 02:21:45;;;;;;;3.35;0.93;;;17.40;99.90;;;;;;4955925;28;20019;-73
2022/08/26 02:24:17;;;;;;;4.72;0.80;;;17.70;99.90;;;;;;4955384;28;20035;-73
2022/08/26 02:26:46;;;;;;;3.10;0.70;;;18.10;99.90;;;;;;4954404;29;20027;-70
2022/08/26 02:29:23;;;;;;;4.97;0.80;;;18.30;99.90;;;;;;4954065;29;20118;-72
2022/08/26 02:31:54;;;;;;;3.20;0.77;;;18.00;99.90;;;;;;4955958;28;20031;-73
2022/08/26 02:34:27;;;;;;;3.95;1.02;;;18.20;99.90;;;;;;4954105;28;20459;-73
2022/08/26 02:36:57;;;;;;;5.85;1.40;;;18.20;99.90;;;;;;4958885;28;20453;-72
2022/08/26 02:39:25;;;;;;;2.67;0.67;;;18.20;99.90;;;;;;4959116;28;20019;-73
2022/08/26 02:41:52;;;;;;;5.10;1.10;;;18.00;99.90;;;;;;4959102;28;20840;-73
2022/08/26 02:44:19;;;;;;;3.63;0.75;;;17.70;99.90;;;;;;4957984;29;20028;-73
2022/08/26 02:46:47;;;;;;;4.93;0.82;;;17.60;99.90;;;;;;4959435;28;20023;-73
2022/08/26 02:49:22;;;;;;;5.47;0.98;;;17.50;99.90;;;;;;4957724;29;20027;-74
2022/08/26 02:51:50;;;;;;;3.97;0.73;;;17.60;99.90;;;;;;4957778;29;20381;-74
2022/08/26 02:54:21;;;;;;;5.95;0.90;;;17.40;99.90;;;;;;4958833;28;20047;-73
2022/08/26 02:56:50;;;;;;;5.95;0.85;;;17.40;99.90;;;;;;4958701;28;20023;-74
2022/08/26 02:59:17;;;;;;;6.88;1.33;;;17.20;99.90;;;;;;4957552;29;20023;-72
2022/08/26 03:01:46;;;;;;;3.22;0.85;;;17.20;99.90;;;;;;4957707;29;20114;-73
2022/08/26 03:04:13;;;;;;;3.13;0.93;;;17.40;99.90;;;;;;4957514;29;20031;-76
2022/08/26 03:06:41;;;;;;;6.60;1.30;;;17.60;99.90;;;;;;4957530;29;20062;-73
2022/08/26 03:09:08;;;;;;;3.92;0.60;;;17.70;99.90;;;;;;4958494;28;20032;-72
2022/08/26 03:11:36;;;;;;;3.25;0.70;;;17.30;99.90;;;;;;4957480;29;20113;-75
2022/08/26 03:14:04;;;;;;;5.28;0.95;;;17.00;99.90;;;;;;4957273;29;20027;-72
2022/08/26 03:16:34;;;;;;;8.02;1.67;;;17.20;99.90;;;;;;4957563;29;20043;-73
2022/08/26 03:19:03;;;;;;;4.15;0.60;;;17.10;99.90;;;;;;4957111;29;20374;-73
2022/08/26 03:21:31;;;;;;;3.25;0.63;;;17.10;99.90;;;;;;4957293;29;20082;-73
2022/08/26 03:23:59;;;;;;;4.90;1.23;;;17.40;99.90;;;;;;4957101;29;20034;-72
2022/08/26 03:26:27;;;;;;;2.42;0.70;;;17.60;99.90;;;;;;4957058;29;20031;-73
2022/08/26 03:31:41;;;;;;;2.88;0.45;;;17.50;99.90;;;;;;4958428;29;20392;-74
2022/08/26 03:34:08;;;;;;;3.55;0.75;;;17.30;99.90;;;;;;4958678;28;20114;-74
2022/08/26 03:36:35;;;;;;;4.55;1.25;;;17.90;99.90;;;;;;4958503;28;20027;-75
2022/08/26 03:39:03;;;;;;;3.30;0.55;;;18.10;99.90;;;;;;4958222;28;20066;-73
2022/08/26 03:41:32;;;;;;;6.45;1.13;;;18.60;99.90;;;;;;4957857;28;20054;-73
2022/08/26 03:44:00;;;;;;;5.07;0.90;;;18.50;99.90;;;;;;4958191;28;20027;-73
2022/08/26 03:46:27;;;;;;;3.85;0.95;;;18.50;99.90;;;;;;4956459;28;20122;-72
2022/08/26 03:48:55;;;;;;;4.00;0.75;;;18.50;99.90;;;;;;4956581;29;20027;-72
2022/08/26 03:51:22;;;;;;;7.25;1.20;;;18.50;99.90;;;;;;4958040;28;20023;-74
2022/08/26 03:53:49;;;;;;;5.28;1.10;;;18.60;99.90;;;;;;4956711;29;20031;-72
2022/08/26 03:56:17;;;;;;;3.03;0.70;;;18.80;99.90;;;;;;4957813;28;20436;-72
2022/08/26 03:58:45;;;;;;;6.97;0.90;;;18.80;99.90;;;;;;4957298;28;20082;-73
2022/08/26 04:01:13;;;;;;;4.65;0.98;;;18.60;99.90;;;;;;4957605;28;20066;-71
2022/08/26 04:03:59;;;;;;;4.60;0.90;;;17.90;99.90;;;;;;4956283;29;20035;-74
2022/08/26 04:06:33;;;;;;;6.90;1.30;;;17.50;99.90;;;;;;4957533;28;20059;-73
2022/08/26 04:09:07;;;;;;;2.95;0.70;;;17.30;99.90;;;;;;4956380;29;20031;-73
2022/08/26 04:11:38;;;;;;;4.05;0.77;;;17.00;99.90;;;;;;4956065;29;20065;-72
2022/08/26 04:14:13;;;;;;;3.13;0.70;;;16.90;99.90;;;;;;4958082;28;20023;-71
2022/08/26 04:16:41;;;;;;;3.00;0.70;;;16.70;99.90;;;;;;4957397;28;20527;-72
2022/08/26 04:19:10;;;;;;;5.35;0.75;;;16.50;99.90;;;;;;4957466;28;20034;-72
2022/08/26 04:21:38;;;;;;;5.35;0.80;;;16.00;99.90;;;;;;4956429;29;20459;-73
2022/08/26 04:24:07;;;;;;;5.20;0.95;;;15.80;99.90;;;;;;4955619;29;20027;-71
2022/08/26 04:26:38;;;;;;;4.35;0.88;;;15.70;99.90;;;;;;4955655;29;20090;-72
2022/08/26 04:29:11;;;;;;;6.30;0.88;;;15.90;99.90;;;;;;4957176;28;20020;-71
2022/08/26 04:31:40;;;;;;;5.43;0.80;;;16.20;99.90;;;;;;4957260;28;20019;-73
2022/08/26 04:34:07;;;;;;;4.82;0.98;;;16.20;99.90;;;;;;4955390;29;20031;-74
2022/08/26 04:36:35;;;;;;;2.67;1.00;;;16.20;99.90;;;;;;4955896;29;20129;-73
2022/08/26 04:39:04;;;;;;;4.43;1.27;;;16.20;99.90;;;;;;4955936;28;20023;-72
2022/08/26 04:41:31;;;;;;;3.58;0.63;;;16.30;99.90;;;;;;4956822;28;20051;-74
2022/08/26 04:44:01;;;;;;;3.83;1.00;;;15.90;99.90;;;;;;4957250;28;20021;-72
2022/08/26 04:46:28;;;;;;;3.85;1.02;;;15.90;99.90;;;;;;4940222;29;20373;-74
2022/08/26 04:48:55;;;;;;;4.88;0.93;;;16.00;99.90;;;;;;4957337;28;20027;-75
2022/08/26 04:51:26;;;;;;;5.97;0.93;;;15.90;99.90;;;;;;4957357;28;20078;-73
2022/08/26 04:53:58;;;;;;;5.78;0.88;;;16.00;99.90;;;;;;4955503;29;20496;-73
2022/08/26 04:56:33;;;;;;;6.10;1.00;;;15.80;99.90;;;;;;4955453;29;20065;-73
2022/08/26 04:59:02;;;;;;;4.65;0.77;;;15.80;99.90;;;;;;4955639;28;20028;-73
2022/08/26 05:01:30;;;;;;;5.43;1.20;;;15.80;99.90;;;;;;4957152;28;20082;-75
2022/08/26 05:03:58;;;;;;;4.05;0.75;;;15.80;99.90;;;;;;4955324;29;20547;-73
2022/08/26 05:06:26;;;;;;;5.40;1.02;;;15.80;99.90;;;;;;4956751;28;20015;-73
2022/08/26 05:08:54;;;;;;;4.07;1.00;;;15.80;99.90;;;;;;4955080;29;20027;-71
2022/08/26 05:11:22;;;;;;;7.53;1.17;;;16.10;99.90;;;;;;4956291;29;20023;-73
2022/08/26 05:13:49;;;;;;;5.28;1.00;;;16.30;99.90;;;;;;4955102;29;20436;-73
2022/08/26 05:16:18;;;;;;;6.82;1.00;;;16.20;99.90;;;;;;4956919;28;20034;-72
2022/08/26 05:18:46;;;;;;;4.10;0.82;;;16.20;99.90;;;;;;4956788;28;20081;-75
2022/08/26 05:21:19;;;;;;;4.35;1.10;;;16.20;99.90;;;;;;4954970;29;20436;-73
2022/08/26 05:23:50;;;;;;;4.95;0.90;;;16.20;99.90;;;;;;4954964;29;20019;-71
2022/08/26 05:26:18;;;;;;;3.80;0.77;;;16.20;99.90;;;;;;4956250;28;20023;-73
2022/08/26 05:28:46;;;;;;;8.68;1.10;;;16.20;99.90;;;;;;4954711;29;20791;-73
2022/08/26 05:31:20;;;;;;;5.32;0.88;;;16.30;99.90;;;;;;4955989;28;20484;-71
2022/08/26 05:33:47;;;;;;;5.95;1.15;;;16.20;99.90;;;;;;4956349;28;20102;-74
2022/08/26 05:36:18;;;;;;;3.05;0.98;;;16.00;99.90;;;;;;4954737;29;20399;-72
2022/08/26 05:38:46;;;;;;;5.80;0.95;;;15.90;99.90;;;;;;4956500;29;20027;-72
2022/08/26 05:41:29;;;;;;;9.27;1.30;;;15.70;99.90;;;;;;4955640;28;20054;-72
2022/08/26 05:43:58;;;;;;;7.60;1.08;;;15.50;99.90;;;;;;4954779;29;20122;-73
2022/08/26 05:46:26;;;;;;;5.78;1.10;;;15.30;99.90;;;;;;4956793;28;20136;-75
2022/08/26 05:48:55;;;;;;;6.68;1.15;;;15.20;99.90;;;;;;4956650;28;20492;-72
2022/08/26 05:51:24;;;;;;;2.17;0.65;;;15.00;99.90;;;;;;4955018;29;20035;-75
2022/08/26 05:53:52;;;;;;;6.53;1.25;;;15.00;99.90;;;;;;4954901;29;20027;-74
2022/08/26 05:56:26;;;;;;;3.42;0.77;;;14.80;99.90;;;;;;4954898;29;20484;-72
2022/08/26 05:58:55;;;;;;;4.80;1.00;;;14.60;99.90;;;;;;4955043;29;20118;-75
2022/08/26 06:01:25;;;;;;;6.18;1.35;;;14.50;99.90;;;;;;4955137;29;20073;-73
2022/08/26 06:03:57;;;;;;;6.57;1.33;;;14.50;99.90;;;;;;4954702;29;20429;-76
2022/08/26 06:06:28;;;;;;;3.45;1.10;;;14.50;99.90;;;;;;4956561;28;20031;-74
2022/08/26 06:08:58;;;;;;;4.38;1.02;;;14.50;99.90;;;;;;4955637;28;20396;-75
2022/08/26 06:11:26;;;;;;;4.65;1.08;;;14.30;99.90;;;;;;4959269;29;20393;-75
2022/08/26 06:13:57;;;;;;;6.00;1.13;;;14.20;99.90;;;;;;4958916;29;20031;-75
2022/08/26 06:16:24;;;;;;;2.83;0.93;;;14.30;99.90;;;;;;4958891;29;20063;-74
2022/08/26 06:18:53;;;;;;;4.75;1.15;;;14.30;99.90;;;;;;4960572;28;20028;-73
2022/08/26 06:21:22;;;;;;;6.47;1.10;;;14.20;99.90;;;;;;4959380;29;20023;-74
2022/08/26 06:26:38;;;;;;;7.05;1.90;;;14.30;99.90;;;;;;4961067;29;20030;-76
2022/08/26 06:29:07;;;;;;;7.15;1.73;;;14.30;99.90;;;;;;4959811;28;20027;-75
2022/08/26 06:31:35;;;;;;;6.05;1.58;;;14.20;99.90;;;;;;4962117;28;20373;-80
2022/08/26 06:34:04;;;;;;;7.85;1.67;;;14.20;99.90;;;;;;4961333;29;20020;-79
2022/08/26 06:36:33;;;;;;;6.15;1.63;;;14.10;99.90;;;;;;4961395;29;20035;-76
2022/08/26 06:39:08;;;;;;;8.00;1.45;;;14.00;99.90;;;;;;4959320;28;20028;-80
2022/08/26 06:41:37;;;;;;;7.03;1.45;;;14.10;99.90;;;;;;4959538;29;20134;-78
2022/08/26 06:44:06;;;;;;;5.35;0.98;;;14.10;99.90;;;;;;4961651;28;20078;-78
2022/08/26 06:46:34;;;;;;;5.35;1.38;;;14.10;99.90;;;;;;4975050;28;20054;-79
2022/08/26 06:49:01;;;;;;;4.57;1.10;;;14.10;99.90;;;;;;4961933;28;20023;-78
2022/08/26 06:51:31;;;;;;;5.45;1.23;;;14.10;99.90;;;;;;4960690;28;20038;-75
2022/08/26 06:54:00;;;;;;;4.95;1.15;;;14.10;99.90;;;;;;4960187;28;20026;-75
2022/08/26 06:56:34;;;;;;;7.53;1.10;;;14.00;99.90;;;;;;4958674;29;20117;-75
2022/08/26 06:59:03;;;;;;;5.45;1.25;;;14.00;99.90;;;;;;4958690;29;20035;-75
2022/08/26 07:01:34;;;;;;;6.97;1.50;;;14.10;99.90;;;;;;4959810;28;20035;-75
2022/08/26 07:04:05;;;;;;;6.90;1.10;;;14.10;99.90;;;;;;4959762;28;20111;-75
2022/08/26 07:06:37;;;;;;;3.78;0.90;;;14.00;99.90;;;;;;4957914;29;20031;-75
2022/08/26 07:09:08;;;;;;;6.55;0.95;;;14.00;99.90;;;;;;4957746;29;20404;-75
2022/08/26 07:11:37;;;;;;;5.00;1.00;;;13.80;99.90;;;;;;4957942;29;20027;-73
2022/08/26 07:14:05;;;;;;;5.20;0.93;;;13.90;99.90;;;;;;4957848;29;20543;-75
2022/08/26 07:16:33;;;;;;;3.53;0.80;;;14.00;99.90;;;;;;4957445;29;20027;-74
2022/08/26 07:19:01;;;;;;;4.82;1.15;;;14.00;99.90;;;;;;4958739;28;20472;-74
2022/08/26 07:21:28;;;;;;;4.63;0.98;;;14.00;99.90;;;;;;4956859;28;20087;-75
2022/08/26 07:23:56;;;;;;;4.35;0.90;;;14.00;99.90;;;;;;4958910;28;20031;-75
2022/08/26 07:26:26;;;;;;;7.32;1.10;;;13.90;99.90;;;;;;4958552;28;20023;-74
2022/08/26 07:28:55;;;;;;;2.90;1.10;;;13.90;99.90;;;;;;4957998;29;20436;-75
2022/08/26 07:31:25;;;;;;;1.98;0.93;;;13.80;99.90;;;;;;4956919;29;20039;-75
2022/08/26 07:33:53;;;;;;;5.38;1.00;;;13.70;99.90;;;;;;4957950;28;20027;-75
2022/08/26 07:36:23;;;;;;;2.92;0.80;;;13.70;99.90;;;;;;4957151;29;20027;-77
2022/08/26 07:38:51;;;;;;;3.58;0.70;;;13.70;99.90;;;;;;4958401;28;20502;-76
2022/08/26 07:41:23;;;;;;;2.17;0.77;;;13.70;99.90;;;;;;4956753;28;20051;-75
2022/08/26 07:43:52;;;;;;;4.45;1.20;;;13.70;99.90;;;;;;4957425;29;20488;-74
2022/08/26 07:46:19;;;;;;;3.45;0.70;;;13.70;99.90;;;;;;4958486;28;20038;-75
2022/08/26 07:48:49;;;;;;;5.57;1.45;;;13.70;99.90;;;;;;4958051;28;20373;-76
2022/08/26 07:51:19;;;;;;;5.90;1.38;;;13.70;99.90;;;;;;4941068;29;20085;-75
2022/08/26 07:53:47;;;;;;;3.38;1.20;;;13.70;99.90;;;;;;4956951;29;20163;-75
2022/08/26 07:56:15;;;;;;;5.60;1.00;;;13.70;99.90;;;;;;4956944;29;20078;-74
2022/08/26 07:58:43;;;;;;;5.18;1.00;;;13.80;99.90;;;;;;4940551;29;20093;-76
2022/08/26 08:01:11;;;;;;;4.88;0.80;;;13.80;99.90;;;;;;4957836;28;20019;-75
2022/08/26 08:03:39;;;;;;;7.25;1.13;;;13.70;99.90;;;;;;4940950;29;20042;-73
2022/08/26 08:06:07;;;;;;;9.30;1.50;;;13.70;99.90;;;;;;4957672;28;20023;-73
2022/08/26 08:08:35;;;;;;;5.43;1.00;;;13.60;99.90;;;;;;4956371;29;20027;-75
2022/08/26 08:11:02;;;;;;;4.43;1.40;;;13.60;99.90;;;;;;4956322;29;20111;-73
2022/08/26 08:13:30;;;;;;;4.38;1.00;;;13.60;99.90;;;;;;4956294;29;20472;-74
2022/08/26 08:15:57;;;;;;;7.72;1.55;;;13.70;99.90;;;;;;4958331;28;20058;-74
2022/08/26 08:18:27;;;;;;;5.10;1.50;;;13.60;99.90;;;;;;4956580;29;20400;-75
2022/08/26 08:20:55;;;;;;;7.00;1.50;;;13.60;99.90;;;;;;4957476;28;20019;-74
2022/08/26 08:23:22;;;;;;;10.75;2.13;;;13.60;99.90;;;;;;4955974;29;20027;-74
2022/08/26 08:25:49;;;;;;;6.22;1.30;;;13.70;99.90;;;;;;4956212;29;20404;-73
2022/08/26 08:28:17;;;;;;;11.77;1.63;;;13.60;99.90;;;;;;4956058;29;20027;-73
2022/08/26 08:30:44;;;;;;;11.57;2.20;;;13.70;99.90;;;;;;4956011;29;20031;-75
2022/08/26 08:33:11;;;;;;;10.95;2.10;;;13.70;99.90;;;;;;4955192;28;20473;-74
2022/08/26 08:35:41;;;;;;;6.78;1.50;;;13.60;99.90;;;;;;4956094;29;20042;-74
2022/08/26 08:38:10;;;;;;;9.68;1.70;;;13.70;99.90;;;;;;4956053;29;20038;-74
2022/08/26 08:40:41;;;;;;;11.98;2.38;;;13.70;99.90;;;;;;4956469;28;20039;-75
2022/08/26 08:43:30;;;;;;;12.45;2.67;;;13.70;99.90;;;;;;4925251;29;20031;-75
2022/08/26 08:46:14;;;;;;;9.15;2.63;;;13.70;99.90;;;;;;4956090;29;20156;-75
2022/08/26 08:48:48;;;;;;;11.90;3.50;;;13.70;99.90;;;;;;4957020;28;20035;-75
2022/08/26 08:51:40;;;;;;;9.32;3.22;;;13.70;99.90;;;;;;4955907;29;20415;-75
2022/08/26 08:54:18;;;;;;;8.18;3.33;;;13.70;99.90;;;;;;5091735;27;20414;-75
2022/08/26 08:57:19;;;;;;;8.45;3.20;;;13.70;99.90;;;;;;5090655;28;20029;-76
2022/08/26 09:00:01;;;;;;;14.48;4.80;;;13.70;99.90;;;;;;5091825;28;20111;-76
2022/08/26 09:02:52;;;;;;;11.32;3.92;;;13.70;99.90;;;;;;5090155;28;20028;-76
2022/08/26 09:05:30;;;;;;;8.30;2.95;;;13.70;99.90;;;;;;5090167;28;20021;-76
2022/08/26 09:08:04;;;;;;;7.47;2.67;;;13.70;99.90;;;;;;5090701;28;20029;-77
2022/08/26 09:10:42;;;;;;;7.40;2.92;;;13.60;99.90;;;;;;5090202;28;20048;-76
2022/08/26 09:13:13;;;;;;;8.02;2.60;;;13.60;99.90;;;;;;5091520;28;20025;-76
2022/08/26 09:15:58;;;;;;;8.93;2.92;;;13.60;99.90;;;;;;5090505;28;20032;-76
2022/08/26 09:18:53;;;;;;;6.30;2.13;;;13.50;99.90;;;;;;5091321;28;20048;-76
2022/08/26 09:21:25;;;;;;;6.40;2.38;;;13.50;99.90;;;;;;5091108;28;20028;-76
2022/08/26 09:23:55;;;;;;;7.05;2.33;;;13.50;99.90;;;;;;5091796;28;20035;-77
2022/08/26 09:26:47;;;;;;;6.97;2.30;;;13.50;99.90;;;;;;5073576;28;20032;-77
2022/08/26 09:29:22;;;;;;;5.55;1.48;;;13.50;99.90;;;;;;5089739;28;20050;-77
2022/08/26 09:31:51;;;;;;;6.03;1.25;;;13.40;99.90;;;;;;5091204;28;20026;-76
2022/08/26 09:34:24;;;;;;;6.43;1.40;;;13.40;99.90;;;;;;5089809;28;20020;-76
2022/08/26 09:36:55;;;;;;;6.68;1.35;;;13.30;99.90;;;;;;5089311;28;20133;-76
2022/08/26 09:39:35;;;;;;;5.38;1.60;;;13.40;99.90;;;;;;5089807;28;20103;-76
2022/08/26 09:42:18;;;;;;;6.07;1.63;;;13.40;99.90;;;;;;5090011;28;20024;-77
2022/08/26 09:45:07;;;;;;;6.13;1.67;;;13.40;99.90;;;;;;5089188;28;20036;-75
2022/08/26 09:47:53;;;;;;;7.22;1.92;;;13.30;99.90;;;;;;5090784;28;20437;-76
2022/08/26 09:50:30;;;;;;;7.32;2.15;;;13.30;99.90;;;;;;5091113;28;20089;-76
2022/08/26 09:53:21;;;;;;;9.02;2.70;;;13.30;99.90;;;;;;5090714;28;20049;-76
2022/08/26 09:55:53;;;;;;;9.57;3.50;;;13.30;99.90;;;;;;5089513;28;20388;-75
2022/08/26 09:58:37;;;;;;;8.65;4.10;;;13.30;99.90;;;;;;5073757;28;20030;-75
2022/08/26 10:01:08;;;;;;;14.27;4.72;;;13.20;99.90;;;;;;5089526;28;20358;-77
2022/08/26 10:03:38;;;;;;;9.82;5.40;;;13.20;99.90;;;;;;5087486;28;20540;-76
2022/08/26 10:06:37;;;;;;;10.60;5.80;;;13.20;99.90;;;;;;5077380;28;20032;-75
2022/08/26 10:09:05;;;;;;;14.32;6.05;;;13.20;99.90;;;;;;5075863;28;20033;-75
2022/08/26 10:12:01;;;;;;;9.48;4.70;;;13.20;99.90;;;;;;5075811;28;20020;-76
2022/08/26 10:14:38;;;;;;;10.32;4.35;;;13.30;99.90;;;;;;5075377;28;20117;-76
2022/08/26 10:17:12;;;;;;;6.80;3.83;;;13.30;99.90;;;;;;5076908;28;20021;-76
2022/08/26 10:19:54;;;;;;;7.13;3.58;;;13.20;99.90;;;;;;5075477;28;20020;-76
2022/08/26 10:22:34;;;;;;;9.75;3.35;;;13.20;99.90;;;;;;5075701;28;20033;-74
2022/08/26 10:25:06;;;;;;;6.68;2.97;;;13.20;99.90;;;;;;5075323;28;20397;-74
2022/08/26 10:27:57;;;;;;;10.98;2.33;;;13.20;99.90;;;;;;5058501;28;20032;-72
2022/08/26 10:30:50;;;;;;;5.00;2.38;;;13.10;99.90;;;;;;5076416;28;20058;-74
2022/08/26 10:33:18;;;;;;;12.07;3.13;;;13.10;99.90;;;;;;5074971;28;20472;-74
2022/08/26 10:35:58;;;;;;;6.82;3.10;;;13.10;99.90;;;;;;5075177;28;20017;-75
2022/08/26 10:38:39;;;;;;;7.93;2.55;;;13.00;99.90;;;;;;5076176;28;20025;-75
2022/08/26 10:41:17;;;;;;;5.47;2.70;;;13.00;99.90;;;;;;5076709;28;20151;-75
2022/08/26 10:43:54;;;;;;;6.10;2.60;;;13.00;99.90;;;;;;5058249;28;20040;-75
2022/08/26 10:46:27;;;;;;;9.10;4.28;;;13.00;99.90;;;;;;5076733;28;20499;-76
2022/08/26 10:49:11;;;;;;;9.63;4.20;;;13.00;99.90;;;;;;5058546;28;20029;-75
2022/08/26 10:51:54;;;;;;;6.45;3.38;;;13.00;99.90;;;;;;5074779;28;20392;-74
2022/08/26 10:54:34;;;;;;;6.97;2.00;;;13.10;99.90;;;;;;5074394;28;20041;-74
2022/08/26 10:57:26;;;;;;;5.55;1.80;;;13.00;99.90;;;;;;5075716;28;20017;-75
2022/08/26 11:00:00;;;;;;;8.07;1.67;;;13.00;99.90;;;;;;5074861;28;20396;-74
2022/08/26 11:02:41;;;;;;;8.50;2.85;;;13.00;99.90;;;;;;5074516;28;20123;-74
2022/08/26 11:05:22;;;;;;;8.05;3.00;;;13.00;99.90;;;;;;5075937;28;20334;-76
2022/08/26 11:08:14;;;;;;;6.03;2.92;;;13.10;99.90;;;;;;5074203;28;20028;-73
2022/08/26 11:10:59;;;;;;;8.85;2.30;;;13.00;99.90;;;;;;5068075;28;20028;-74
2022/08/26 11:14:04;;;;;;;5.68;1.85;;;13.00;99.90;;;;;;5074568;28;20198;-76
2022/08/26 11:16:45;;;;;;;7.30;2.50;;;13.00;99.90;;;;;;5063923;28;20085;-75
2022/08/26 11:19:33;;;;;;;;;;;13.10;99.90;;;;;;5058712;28;20496;-75
2022/08/26 11:22:10;;;;;;;6.15;2.45;;;13.10;99.90;;;;;;5074283;28;20343;-74
2022/08/26 11:24:52;;;;;;;7.70;2.53;;;13.20;99.90;;;;;;5076122;28;20024;-76
2022/08/26 11:27:37;;;;;;;6.97;2.10;;;13.20;99.90;;;;;;5076763;28;20020;-76
2022/08/26 11:30:16;;;;;;;4.28;1.92;;;13.10;99.90;;;;;;5076438;28;20021;-76
2022/08/26 11:32:46;;;;;;;5.65;1.75;;;13.10;99.90;;;;;;5074792;28;20044;-75
2022/08/26 11:35:20;;;;;;;5.27;1.87;;;13.20;99.90;;;;;;5074354;28;20139;-75
2022/08/26 11:37:56;;;;;;;5.03;1.60;;;13.10;99.90;;;;;;5075967;28;20613;-77
2022/08/26 11:40:30;;;;;;;5.63;1.98;;;13.10;99.90;;;;;;5074835;28;20043;-77
2022/08/26 11:43:00;;;;;;;5.65;1.83;;;13.00;99.90;;;;;;5074899;28;20032;-76
2022/08/26 11:45:39;;;;;;;6.18;2.35;;;13.10;99.90;;;;;;5076389;28;20021;-78
2022/08/26 11:48:22;;;;;;;6.13;2.20;;;13.10;99.90;;;;;;5074862;28;20032;-77
2022/08/26 11:50:57;;;;;;;6.72;2.13;;;13.00;99.90;;;;;;5075934;28;20093;-76
2022/08/26 11:53:25;;;;;;;6.10;2.50;;;13.10;99.90;;;;;;5075671;28;20090;-77
2022/08/26 11:55:55;;;;;;;6.13;2.30;;;13.00;99.90;;;;;;5075540;28;20055;-76
2022/08/26 11:58:25;;;;;;;6.53;2.63;;;12.90;99.90;;;;;;5074913;28;20040;-76
2022/08/26 12:01:02;;;;;;;5.85;2.00;;;12.90;99.90;;;;;;5074325;28;20103;-72
2022/08/26 12:03:44;;;;;;;3.70;1.70;;;12.90;99.90;;;;;;5076083;28;20024;-75
2022/08/26 12:06:25;;;;;;;5.57;2.15;;;12.80;99.90;;;;;;5074399;28;20082;-75
2022/08/26 12:08:58;;;;;;;3.28;2.00;;;12.80;99.90;;;;;;5075331;28;20024;-76
2022/08/26 12:11:43;;;;;;;3.75;2.15;;;12.80;99.90;;;;;;5075905;28;20025;-73
2022/08/26 12:14:25;;;;;;;5.82;1.90;;;12.70;99.90;;;;;;5074548;28;20388;-74
2022/08/26 12:16:54;;;;;;;4.82;1.67;;;12.70;99.90;;;;;;5074428;28;20107;-74
2022/08/26 12:19:25;;;;;;;7.60;1.90;;;12.70;99.90;;;;;;5073596;28;20066;-74
2022/08/26 12:22:18;;;;;;;3.78;1.63;;;12.70;99.90;;;;;;5073678;28;20020;-71
2022/08/26 12:25:08;;;;;;;4.40;2.03;;;12.60;99.90;;;;;;5073401;28;20078;-72
2022/08/26 12:27:41;;;;;;;8.48;1.60;;;12.60;99.90;;;;;;5073072;28;20032;-72
2022/08/26 12:30:22;;;;;;;6.13;1.90;;;12.60;99.90;;;;;;5073024;28;20031;-74
2022/08/26 12:33:12;;;;;;;4.80;2.22;;;12.70;99.90;;;;;;5074557;28;20060;-73
2022/08/26 12:35:45;;;;;;;4.63;1.80;;;12.70;99.90;;;;;;5074120;28;20031;-72
2022/08/26 12:38:13;;;;;;;3.97;2.20;;;12.70;99.90;;;;;;5073112;28;20052;-72
2022/08/26 12:40:48;;;;;;;7.18;2.15;;;12.70;99.90;;;;;;5074120;28;20507;-72
2022/08/26 12:43:45;;;;;;;4.80;2.13;;;12.70;99.90;;;;;;5072682;28;20021;-72
2022/08/26 12:46:28;;;;;;;4.53;2.05;;;12.70;99.90;;;;;;5074029;28;20028;-73
2022/08/26 12:48:59;;;;;;;5.60;2.10;;;12.80;99.90;;;;;;5072808;28;20067;-74
2022/08/26 12:51:40;;;;;;;4.28;1.83;;;12.70;99.90;;;;;;5072465;28;20111;-73
2022/08/26 12:54:16;;;;;;;5.85;2.20;;;12.70;99.90;;;;;;5072359;28;20127;-73
2022/08/26 12:56:43;;;;;;;4.13;1.88;;;12.70;99.90;;;;;;5056988;28;20508;-75
2022/08/26 12:59:24;;;;;;;3.53;1.98;;;12.70;99.90;;;;;;5074461;28;20024;-72
2022/08/26 13:01:52;;;;;;;6.05;2.70;;;12.70;99.90;;;;;;5074774;28;20031;-74
2022/08/26 13:04:42;;;;;;;8.00;3.20;;;12.70;99.90;;;;;;5073201;28;20066;-73
2022/08/26 13:07:25;;;;;;;4.80;2.63;;;12.70;99.90;;;;;;5072337;28;20028;-73
2022/08/26 13:09:55;;;;;;;5.55;2.67;;;12.60;99.90;;;;;;5072714;28;20033;-73
2022/08/26 13:12:32;;;;;;;7.70;2.60;;;12.60;99.90;;;;;;5072455;28;20029;-72
2022/08/26 13:15:01;;;;;;;5.10;2.35;;;12.60;99.90;;;;;;5073745;28;20021;-76
2022/08/26 13:17:30;;;;;;;6.88;2.35;;;12.60;99.90;;;;;;5073664;28;20050;-74
2022/08/26 13:19:58;;;;;;;5.05;2.03;;;12.50;99.90;;;;;;5072825;28;20028;-73